Terminal Aerodrome Forecast
Issued by NWS

Current Version | Previous Version | Graphics & Text | Print | Product List | Glossary On
Versions: 1 2 3 4 5 6 7 8 9 10 11 12 13 14 15 16 17 18
000
FTUS41 KRNK 190304 AAA
TAFLWB
TAF AMD
KLWB 190304Z 1903/1924 24010G15KT P6SM BKN040
     FM190500 26010G21KT P6SM -SHRA BKN025
      TEMPO 1905/1907 4SM -SHRA OVC007
     FM190700 27015G27KT P6SM VCSH BKN015
     FM190900 29015G29KT P6SM BKN020=

USA.gov is the U.S. government's official web portal to all federal, state and local government web resources and services.